Time;durP1;ratioP1;P1;durP2;ratioP2;P2;SDS_P1;SDS_P2;PMS_P1;PMS_P2;Temp;Humidity;BMP_temperature;BMP_pressure;BME280_temperature;BME280_humidity;BME280_pressure;Samples;Min_cycle;Max_cycle;Signal;HPM_P1;HPM_P2
2023/05/01 00:00:43;;;;;;;;;28.75;27.75;;;;;17.51;50.44;101156.53;2087611;28;46887;-65
2023/05/01 00:01:44;;;;;;;;;25.25;25.25;;;;;17.50;50.54;101152.97;2087415;28;46989;-65
2023/05/01 00:02:44;;;;;;;;;27.00;25.00;;;;;17.50;50.58;101154.78;2087870;28;47057;-66
2023/05/01 00:03:45;;;;;;;;;24.75;24.25;;;;;17.49;50.61;101151.22;2090107;28;46864;-66
2023/05/01 00:04:45;;;;;;;;;27.00;24.75;;;;;17.47;50.62;101146.88;2096055;28;46786;-66
2023/05/01 00:05:46;;;;;;;;;28.25;27.50;;;;;17.47;50.33;101152.22;2096111;28;46625;-66
2023/05/01 00:06:46;;;;;;;;;27.75;24.00;;;;;17.46;50.61;101150.50;2096132;28;46658;-66
2023/05/01 00:07:47;;;;;;;;;26.00;25.50;;;;;17.46;50.74;101147.81;2096564;28;45051;-65
2023/05/01 00:08:48;;;;;;;;;30.00;27.60;;;;;17.44;50.87;101150.56;2095712;28;46388;-67
2023/05/01 00:09:49;;;;;;;;;25.50;24.25;;;;;17.44;50.75;101144.31;2095804;28;45537;-66
2023/05/01 00:10:49;;;;;;;;;26.00;25.80;;;;;17.43;50.84;101142.59;2088054;28;46941;-67
2023/05/01 00:11:50;;;;;;;;;26.75;25.75;;;;;17.42;50.82;101154.25;2090516;28;46710;-65
2023/05/01 00:12:50;;;;;;;;;25.75;24.00;;;;;17.41;50.91;101147.16;2095783;28;46308;-67
2023/05/01 00:13:53;;;;;;;;;26.00;25.00;;;;;17.40;51.06;101143.56;2104403;28;46151;-64
2023/05/01 00:14:53;;;;;;;;;27.40;26.60;;;;;17.39;51.02;101143.63;2103390;28;47016;-65
2023/05/01 00:15:54;;;;;;;;;25.00;25.00;;;;;17.36;51.10;101145.50;2096517;28;45095;-65
2023/05/01 00:16:55;;;;;;;;;24.80;24.40;;;;;17.34;51.18;101141.16;2095855;28;46036;-66
2023/05/01 00:17:55;;;;;;;;;25.00;25.00;;;;;17.32;50.84;101141.22;2096294;28;46165;-66
2023/05/01 00:18:56;;;;;;;;;25.75;25.75;;;;;17.31;51.03;101147.53;2095942;28;46633;-66
2023/05/01 00:19:56;;;;;;;;;27.50;25.75;;;;;17.28;51.26;101142.31;2095821;28;46393;-66
2023/05/01 00:20:57;;;;;;;;;24.75;23.00;;;;;17.27;51.50;101143.22;2095238;28;46303;-67
2023/05/01 00:21:57;;;;;;;;;26.00;24.75;;;;;17.27;51.62;101140.53;2088952;28;45926;-66
2023/05/01 00:22:57;;;;;;;;;24.50;23.50;;;;;17.26;51.48;101137.94;2095388;28;45699;-66
2023/05/01 00:23:58;;;;;;;;;31.25;27.75;;;;;17.25;51.44;101144.22;2087207;28;47664;-66
2023/05/01 00:24:58;;;;;;;;;27.00;26.00;;;;;17.26;51.49;101135.25;2091181;28;45954;-65
2023/05/01 00:25:58;;;;;;;;;28.75;26.00;;;;;17.25;51.36;101137.06;2095198;28;46359;-65
2023/05/01 00:26:59;;;;;;;;;30.75;28.25;;;;;17.25;51.52;101139.72;2095252;28;47903;-66
2023/05/01 00:27:59;;;;;;;;;25.25;24.50;;;;;17.26;51.60;101143.28;2092383;28;47123;-65
2023/05/01 00:28:59;;;;;;;;;24.25;24.25;;;;;17.25;51.84;101134.38;2087138;28;46296;-66
2023/05/01 00:30:00;;;;;;;;;26.75;26.00;;;;;17.24;51.30;101132.63;2085298;28;46810;-65
2023/05/01 00:31:01;;;;;;;;;27.25;27.25;;;;;17.25;51.60;101129.00;2089036;28;46112;-66
2023/05/01 00:32:01;;;;;;;;;29.25;28.00;;;;;17.25;51.75;101134.38;2095243;28;46476;-65
2023/05/01 00:33:01;;;;;;;;;30.75;29.50;;;;;17.25;51.43;101131.69;2091319;28;47026;-66
2023/05/01 00:34:03;;;;;;;;;31.50;30.50;;;;;17.24;51.67;101129.94;2087473;28;46470;-66
2023/05/01 00:35:04;;;;;;;;;27.80;27.20;;;;;17.24;51.83;101134.44;2094589;28;46548;-66
2023/05/01 00:36:05;;;;;;;;;32.75;28.25;;;;;17.23;51.77;101133.56;2095932;28;48102;-65
2023/05/01 00:37:05;;;;;;;;;33.50;30.75;;;;;17.23;51.76;101130.00;2085946;28;45448;-66
2023/05/01 00:38:06;;;;;;;;;28.00;27.00;;;;;17.22;51.95;101131.81;2084707;28;46585;-66
2023/05/01 00:39:06;;;;;;;;;29.00;27.25;;;;;17.22;51.93;101128.28;2087657;28;46476;-67
2023/05/01 00:40:07;;;;;;;;;33.50;31.00;;;;;17.22;51.76;101139.00;2078825;28;46695;-65
2023/05/01 00:41:08;;;;;;;;;29.00;28.25;;;;;17.22;51.87;101130.94;2082482;28;46922;-66
2023/05/01 00:42:08;;;;;;;;;29.00;27.25;;;;;17.21;52.02;101123.84;2087629;28;45815;-65
2023/05/01 00:43:10;;;;;;;;;32.00;29.50;;;;;17.20;52.16;101132.84;2087676;28;46811;-65
2023/05/01 00:44:11;;;;;;;;;30.60;29.20;;;;;17.19;52.16;101123.03;2087419;28;46906;-67
2023/05/01 00:45:11;;;;;;;;;31.00;28.50;;;;;17.19;52.07;101123.03;2086718;28;46429;-66
2023/05/01 00:46:12;;;;;;;;;30.00;28.00;;;;;17.19;51.99;101123.91;2086924;28;46530;-65
2023/05/01 00:47:13;;;;;;;;;28.75;27.00;;;;;17.18;52.11;101115.94;2085233;28;46322;-65
2023/05/01 00:48:14;;;;;;;;;26.00;26.00;;;;;17.18;52.06;101115.94;2087173;28;46060;-66
2023/05/01 00:49:16;;;;;;;;;34.60;30.80;;;;;17.18;52.01;101121.31;2087672;28;46788;-65
2023/05/01 00:50:17;;;;;;;;;30.00;29.00;;;;;17.17;52.05;101120.44;2087276;28;46310;-66
2023/05/01 00:51:18;;;;;;;;;30.50;29.75;;;;;17.17;52.07;101114.19;2092547;28;46712;-65
2023/05/01 00:52:19;;;;;;;;;28.40;27.00;;;;;17.15;52.20;101111.59;2096299;28;45509;-64
2023/05/01 00:53:20;;;;;;;;;33.75;31.25;;;;;17.16;52.26;101109.78;2095894;28;46865;-65
2023/05/01 00:54:21;;;;;;;;;26.80;25.80;;;;;17.15;52.13;101111.59;2095788;28;46340;-66
2023/05/01 00:55:22;;;;;;;;;27.40;26.00;;;;;17.16;52.29;101113.31;2095926;28;46000;-67
2023/05/01 00:56:25;;;;;;;;;28.75;28.00;;;;;17.15;52.24;101121.41;2095326;28;46750;-65
2023/05/01 00:57:25;;;;;;;;;28.00;27.00;;;;;17.15;52.21;101110.69;2096714;28;45998;-66
2023/05/01 00:58:26;;;;;;;;;26.25;26.00;;;;;17.13;52.67;101110.75;2105286;28;46941;-65
2023/05/01 00:59:27;;;;;;;;;27.25;26.75;;;;;17.14;52.44;101108.94;2097274;28;46465;-66
2023/05/01 01:00:28;;;;;;;;;30.00;27.80;;;;;17.12;52.64;101102.78;2089204;28;46335;-66
2023/05/01 01:01:29;;;;;;;;;25.50;24.75;;;;;17.13;52.51;101107.19;2090131;28;46116;-65
2023/05/01 01:02:31;;;;;;;;;36.00;30.75;;;;;17.12;52.42;101102.78;2096213;28;46381;-65
2023/05/01 01:03:31;;;;;;;;;34.80;31.00;;;;;17.10;52.33;101100.16;2096482;28;46711;-65
2023/05/01 01:04:33;;;;;;;;;29.75;29.00;;;;;17.09;52.49;101094.88;2089359;28;46186;-66
2023/05/01 01:05:40;;;;;;;;;31.20;30.20;;;;;17.10;52.72;101100.16;2088459;28;46823;-66
2023/05/01 01:07:12;;;;;;;;;28.00;28.00;;;;;17.10;52.45;101101.97;2089079;28;47377;-65
2023/05/01 01:08:25;;;;;;;;;31.60;29.60;;;;;17.09;52.56;101101.09;2086955;28;45599;-65
2023/05/01 01:09:55;;;;;;;;;30.00;29.80;;;;;17.08;52.88;101094.00;2088540;28;46933;-67
2023/05/01 01:11:19;;;;;;;;;32.80;28.20;;;;;17.08;52.88;101093.13;2071272;28;46954;-67
2023/05/01 01:12:56;;;;;;;;;27.60;27.00;;;;;17.05;52.67;101092.31;2071112;28;46878;-66
2023/05/01 01:14:31;;;;;;;;;28.20;28.20;;;;;17.03;52.88;101088.84;2071248;28;47024;-65
2023/05/01 01:15:43;;;;;;;;;27.80;25.20;;;;;17.01;53.20;101089.81;2071256;28;45820;-66
2023/05/01 01:16:49;;;;;;;;;25.60;25.20;;;;;17.00;52.78;101088.94;2071402;28;45883;-66
2023/05/01 01:18:15;;;;;;;;;26.40;25.80;;;;;16.97;52.92;101078.38;2071097;28;46511;-64
2023/05/01 01:19:40;;;;;;;;;24.40;24.40;;;;;16.97;53.01;101088.22;2071642;28;45596;-65
2023/05/01 01:21:00;;;;;;;;;31.40;29.80;;;;;16.95;53.14;101088.28;2076292;28;46813;-67
2023/05/01 01:22:14;;;;;;;;;29.60;28.80;;;;;16.93;53.09;101086.59;2078414;28;45811;-65
2023/05/01 01:23:23;;;;;;;;;24.40;24.40;;;;;16.91;53.34;101091.16;2079301;28;48026;-66
2023/05/01 01:24:56;;;;;;;;;18.60;18.60;;;;;16.87;53.18;101084.16;2075992;28;45400;-66
2023/05/01 01:26:11;;;;;;;;;27.00;26.00;;;;;16.84;53.53;101081.63;2063379;28;45862;-66
2023/05/01 01:27:38;;;;;;;;;26.60;26.60;;;;;16.84;53.44;101084.31;2068643;28;46835;-67
2023/05/01 01:29:29;;;;;;;;;29.40;25.00;;;;;16.82;53.78;101079.00;2071305;28;46185;-67
2023/05/01 01:30:47;;;;;;;;;29.40;28.40;;;;;16.82;53.62;101084.38;2047012;28;45368;-65
2023/05/01 01:32:00;;;;;;;;;31.40;28.20;;;;;16.80;53.77;101078.22;2046948;28;46814;-66
2023/05/01 01:33:09;;;;;;;;;29.40;27.40;;;;;16.80;53.58;101075.53;2046839;28;46316;-66
2023/05/01 01:34:18;;;;;;;;;27.80;26.80;;;;;16.79;53.69;101076.47;2047030;28;45668;-66
2023/05/01 01:35:22;;;;;;;;;29.00;28.00;;;;;16.78;53.47;101080.09;2047080;28;47088;-66
2023/05/01 01:36:56;;;;;;;;;29.20;29.00;;;;;16.77;53.86;101075.66;2046931;28;46550;-66
2023/05/01 01:38:03;;;;;;;;;28.40;26.20;;;;;16.76;53.80;101071.22;2047209;28;45925;-67
2023/05/01 01:39:12;;;;;;;;;28.60;27.80;;;;;16.73;54.07;101071.34;2047030;28;46275;-67
2023/05/01 01:40:16;;;;;;;;;27.40;25.40;;;;;16.72;53.88;101072.28;2047166;28;46109;-65
2023/05/01 01:41:23;;;;;;;;;30.60;29.60;;;;;16.71;53.77;101068.72;2047189;28;45536;-66
2023/05/01 01:42:37;;;;;;;;;31.80;30.40;;;;;16.72;53.98;101072.28;2046648;28;47036;-65
2023/05/01 01:43:49;;;;;;;;;29.00;27.40;;;;;16.73;54.12;101074.03;2047056;28;45506;-65
2023/05/01 01:44:53;;;;;;;;;28.80;26.00;;;;;16.73;54.05;101071.34;2046918;28;46618;-66
2023/05/01 01:45:59;;;;;;;;;29.60;28.80;;;;;16.72;54.41;101066.94;2046547;28;46614;-67
2023/05/01 01:47:03;;;;;;;;;31.20;28.40;;;;;16.72;54.19;101062.44;2046978;28;47384;-66
2023/05/01 01:48:08;;;;;;;;;29.20;28.40;;;;;16.71;54.24;101068.72;2047110;28;45995;-67
2023/05/01 01:49:15;;;;;;;;;30.00;28.00;;;;;16.70;54.09;101069.66;2054491;28;46754;-66
2023/05/01 01:50:19;;;;;;;;;30.80;29.00;;;;;16.71;54.55;101067.84;2055152;28;46003;-67
2023/05/01 01:51:21;;;;;;;;;16.40;16.20;;;;;16.71;54.21;101070.53;2054770;28;46903;-65
2023/05/01 01:52:24;;;;;;;;;29.00;28.20;;;;;16.71;54.14;101067.84;2054463;28;46773;-65
2023/05/01 01:53:28;;;;;;;;;31.40;29.20;;;;;16.69;54.23;101070.59;2055760;28;45846;-66
2023/05/01 01:54:34;;;;;;;;;32.60;29.60;;;;;16.69;54.26;101070.59;2054855;28;46504;-66
2023/05/01 01:55:36;;;;;;;;;28.00;27.00;;;;;16.69;54.34;101075.09;2054917;28;45526;-66
2023/05/01 01:56:40;;;;;;;;;32.00;29.60;;;;;16.69;54.22;101067.06;2055012;28;47157;-66
2023/05/01 01:57:44;;;;;;;;;31.60;30.20;;;;;16.68;54.52;101068.00;2054765;28;46343;-67
2023/05/01 01:58:46;;;;;;;;;32.20;29.20;;;;;16.68;54.02;101066.19;2054352;28;45684;-65
2023/05/01 01:59:48;;;;;;;;;28.00;26.80;;;;;16.69;54.18;101075.09;2054804;28;46208;-65
2023/05/01 02:00:49;;;;;;;;;27.80;27.80;;;;;16.68;54.25;101066.19;2055622;28;46272;-66
2023/05/01 02:01:52;;;;;;;;;30.80;29.20;;;;;16.67;54.28;101071.59;2054597;28;46920;-65
2023/05/01 02:02:52;;;;;;;;;29.60;28.60;;;;;16.67;54.36;101076.94;2055444;28;46087;-65
2023/05/01 02:03:54;;;;;;;;;32.00;29.25;;;;;16.64;54.17;101077.03;2054675;28;47923;-65
2023/05/01 02:04:56;;;;;;;;;27.60;26.40;;;;;16.61;54.25;101070.00;2069511;28;45673;-65
2023/05/01 02:05:58;;;;;;;;;30.00;28.60;;;;;16.61;54.83;101066.47;2088177;28;47427;-66
2023/05/01 02:07:00;;;;;;;;;28.40;27.00;;;;;16.59;54.75;101066.53;2088461;28;46493;-66
2023/05/01 02:08:03;;;;;;;;;29.60;28.00;;;;;16.57;54.75;101068.41;2080145;28;46210;-65
2023/05/01 02:09:05;;;;;;;;;29.80;29.00;;;;;16.56;54.85;101065.78;2087921;28;47012;-66
2023/05/01 02:10:09;;;;;;;;;27.80;26.80;;;;;16.55;54.62;101072.09;2097007;28;46747;-65
2023/05/01 02:11:14;;;;;;;;;33.20;29.00;;;;;16.54;54.46;101067.66;2096422;28;46488;-66
2023/05/01 02:12:17;;;;;;;;;33.20;29.80;;;;;16.54;54.74;101073.88;2097051;28;46470;-65
2023/05/01 02:13:19;;;;;;;;;30.00;28.80;;;;;16.51;54.72;101074.00;2097148;28;46792;-65
2023/05/01 02:14:21;;;;;;;;;30.80;28.20;;;;;16.49;54.65;101073.19;2096478;28;46192;-65
2023/05/01 02:15:24;;;;;;;;;33.40;30.00;;;;;16.48;55.04;101072.31;2093000;28;46369;-66
2023/05/01 02:16:26;;;;;;;;;33.40;31.00;;;;;16.47;54.87;101067.91;2081148;28;46183;-66
2023/05/01 02:17:28;;;;;;;;;31.40;28.60;;;;;16.47;54.88;101069.69;2087270;28;46472;-66
2023/05/01 02:18:30;;;;;;;;;26.40;25.80;;;;;16.46;55.14;101066.16;2088267;28;45664;-65
2023/05/01 02:19:32;;;;;;;;;34.20;29.00;;;;;16.48;54.75;101071.44;2088264;28;46655;-66
2023/05/01 02:20:33;;;;;;;;;32.00;29.00;;;;;16.49;54.84;101071.38;2088240;28;47071;-65
2023/05/01 02:21:36;;;;;;;;;36.20;32.00;;;;;16.48;54.47;101069.63;2088205;28;46652;-65
2023/05/01 02:22:39;;;;;;;;;32.80;30.80;;;;;16.47;54.86;101073.25;2088437;28;46399;-66
2023/05/01 02:23:40;;;;;;;;;33.20;31.00;;;;;16.46;54.84;101074.19;2088184;28;46913;-65
2023/05/01 02:24:42;;;;;;;;;34.50;31.75;;;;;16.45;54.55;101071.56;2088492;28;46343;-66
2023/05/01 02:25:44;;;;;;;;;29.60;28.20;;;;;16.44;54.81;101069.84;2088360;28;45039;-65
2023/05/01 02:26:50;;;;;;;;;28.40;27.40;;;;;16.43;54.63;101077.00;2088464;28;46520;-66
2023/05/01 02:28:00;;;;;;;;;31.80;30.60;;;;;16.41;54.86;101075.31;2088646;28;46772;-67
2023/05/01 02:29:01;;;;;;;;;32.80;29.20;;;;;16.38;55.00;101076.28;2088179;28;46633;-66
2023/05/01 02:30:01;;;;;;;;;31.25;28.75;;;;;16.37;55.00;101079.03;2089336;28;45058;-67
2023/05/01 02:31:01;;;;;;;;;29.75;28.50;;;;;16.35;54.82;101072.88;2088654;28;46575;-66
2023/05/01 02:32:02;;;;;;;;;31.50;29.75;;;;;16.34;54.98;101071.13;2088371;28;46546;-66
2023/05/01 02:33:03;;;;;;;;;31.25;29.75;;;;;16.34;54.99;101073.81;2088732;28;45806;-66
2023/05/01 02:34:03;;;;;;;;;29.75;27.75;;;;;16.34;54.75;101068.44;2087779;28;46384;-66
2023/05/01 02:35:04;;;;;;;;;25.00;24.75;;;;;16.33;55.37;101072.94;2088383;28;46913;-66
2023/05/01 02:36:04;;;;;;;;;30.25;27.75;;;;;16.33;55.07;101072.06;2088053;28;45291;-66
2023/05/01 02:37:06;;;;;;;;;29.75;28.00;;;;;16.31;55.11;101074.81;2093581;28;46798;-66
2023/05/01 02:38:07;;;;;;;;;31.00;29.20;;;;;16.31;54.86;101073.94;2095070;28;45905;-65
2023/05/01 02:39:07;;;;;;;;;28.25;27.00;;;;;16.31;55.29;101068.56;2096306;28;45838;-66
2023/05/01 02:40:11;;;;;;;;;18.75;18.25;;;;;16.30;55.18;101069.50;2096564;28;45878;-65
2023/05/01 02:41:14;;;;;;;;;26.40;26.20;;;;;16.28;54.89;101074.06;2096933;28;45962;-65
2023/05/01 02:42:16;;;;;;;;;31.20;29.60;;;;;16.27;54.74;101081.22;2096883;28;45902;-65
2023/05/01 02:43:19;;;;;;;;;25.20;25.20;;;;;16.26;55.27;101075.91;2093232;28;46815;-67
2023/05/01 02:44:22;;;;;;;;;23.80;23.80;;;;;16.24;54.79;101081.31;2088439;28;45881;-66
2023/05/01 02:45:23;;;;;;;;;29.80;28.60;;;;;16.23;54.69;101081.38;2095566;28;46691;-65
2023/05/01 02:46:26;;;;;;;;;26.80;25.80;;;;;16.22;55.00;101079.66;2090845;28;46385;-66
2023/05/01 02:47:29;;;;;;;;;20.20;17.20;;;;;16.21;54.72;101078.78;2095920;28;46685;-66
2023/05/01 02:48:30;;;;;;;;;26.80;25.40;;;;;16.19;54.99;101078.84;2095808;28;46501;-66
2023/05/01 02:49:31;;;;;;;;;23.60;23.60;;;;;16.19;54.99;101075.28;2088088;28;46730;-65
2023/05/01 02:50:33;;;;;;;;;32.20;27.40;;;;;16.18;54.44;101081.56;2088243;28;46879;-65
2023/05/01 02:51:34;;;;;;;;;23.80;22.60;;;;;16.16;55.01;101072.75;2088162;28;45858;-65
2023/05/01 02:52:36;;;;;;;;;26.60;23.60;;;;;16.15;55.16;101071.00;2088107;28;46671;-65
2023/05/01 02:53:38;;;;;;;;;23.00;22.00;;;;;16.14;54.84;101074.59;2095912;28;46549;-66
2023/05/01 02:54:38;;;;;;;;;23.60;23.20;;;;;16.13;54.71;101078.19;2095571;28;46880;-66
2023/05/01 02:55:39;;;;;;;;;20.75;20.75;;;;;16.12;54.50;101079.13;2088469;28;46682;-66
2023/05/01 02:56:40;;;;;;;;;25.00;24.50;;;;;16.10;54.79;101073.84;2088331;28;46728;-66
2023/05/01 02:57:40;;;;;;;;;26.00;25.25;;;;;16.09;54.58;101072.09;2088314;28;45436;-66
2023/05/01 02:58:41;;;;;;;;;24.75;24.75;;;;;16.09;54.98;101080.13;2088518;28;46501;-66
2023/05/01 02:59:41;;;;;;;;;27.00;24.50;;;;;16.08;55.03;101072.16;2088155;28;45623;-66
2023/05/01 03:00:42;;;;;;;;;24.00;22.00;;;;;16.07;55.03;101079.31;2088001;28;46723;-65
2023/05/01 03:01:42;;;;;;;;;27.25;25.50;;;;;16.05;54.93;101083.84;2086355;28;45541;-66
2023/05/01 03:02:43;;;;;;;;;24.00;22.25;;;;;16.04;55.23;101076.75;2087886;28;46127;-66
2023/05/01 03:03:43;;;;;;;;;24.80;24.20;;;;;16.03;54.93;101085.72;2097098;28;45695;-66
2023/05/01 03:04:44;;;;;;;;;22.75;22.75;;;;;16.01;55.45;101082.25;2104327;28;45705;-66
2023/05/01 03:05:44;;;;;;;;;24.25;23.50;;;;;16.01;55.27;101081.38;2096496;28;46558;-66
2023/05/01 03:06:45;;;;;;;;;25.25;24.25;;;;;15.99;55.58;101078.72;2096964;28;45690;-65
2023/05/01 03:07:46;;;;;;;;;21.50;20.25;;;;;15.98;55.15;101078.78;2096702;28;46714;-65
2023/05/01 03:08:46;;;;;;;;;23.60;21.60;;;;;15.98;55.17;101084.13;2096180;28;46727;-66
2023/05/01 03:09:47;;;;;;;;;22.50;22.50;;;;;15.98;55.10;101081.47;2096748;28;46084;-66
2023/05/01 03:10:47;;;;;;;;;25.00;23.25;;;;;15.98;55.21;101076.09;2090405;28;46426;-66
2023/05/01 03:11:47;;;;;;;;;24.00;24.00;;;;;15.99;55.09;101078.72;2087257;28;46490;-67
2023/05/01 03:12:48;;;;;;;;;24.25;24.25;;;;;15.98;55.44;101079.66;2080066;28;45534;-67
2023/05/01 03:13:48;;;;;;;;;22.50;20.75;;;;;15.98;55.47;101076.09;2083724;28;46584;-66
2023/05/01 03:14:48;;;;;;;;;24.75;23.25;;;;;15.97;55.57;101072.56;2088544;28;46796;-65
2023/05/01 03:15:49;;;;;;;;;26.50;26.50;;;;;15.96;55.58;101077.97;2095905;28;46604;-66
2023/05/01 03:16:49;;;;;;;;;27.75;26.75;;;;;15.95;55.54;101077.09;2100244;28;46176;-66
2023/05/01 03:17:49;;;;;;;;;25.25;25.25;;;;;15.95;55.72;101077.09;2095907;28;46596;-65
2023/05/01 03:18:50;;;;;;;;;25.00;23.75;;;;;15.95;55.60;101068.19;2093061;28;46655;-66
2023/05/01 03:19:50;;;;;;;;;26.75;25.50;;;;;15.96;55.75;101075.31;2094805;28;46322;-67
2023/05/01 03:20:55;;;;;;;;;28.00;26.25;;;;;15.96;55.79;101075.31;2095703;28;46610;-66
2023/05/01 03:21:56;;;;;;;;;30.40;26.60;;;;;15.97;56.01;101071.69;2092582;28;46480;-66
2023/05/01 03:22:56;;;;;;;;;29.75;29.00;;;;;15.97;55.70;101069.00;2088035;28;46369;-66
2023/05/01 03:23:56;;;;;;;;;31.25;29.00;;;;;15.98;56.15;101071.63;2088107;28;46008;-65
2023/05/01 03:24:57;;;;;;;;;30.50;29.00;;;;;15.97;56.01;101075.25;2087868;28;45835;-66
2023/05/01 03:25:58;;;;;;;;;27.75;27.00;;;;;15.96;55.64;101070.81;2088055;28;46398;-66
2023/05/01 03:26:58;;;;;;;;;27.25;27.25;;;;;15.95;56.09;101073.56;2093100;28;46457;-66
2023/05/01 03:27:58;;;;;;;;;28.75;28.50;;;;;15.95;56.06;101076.22;2096123;28;46300;-67
2023/05/01 03:28:59;;;;;;;;;34.00;31.00;;;;;15.93;56.09;101072.75;2096594;28;45545;-65
2023/05/01 03:29:59;;;;;;;;;29.25;29.00;;;;;15.92;56.06;101068.31;2096541;28;45705;-67
2023/05/01 03:31:00;;;;;;;;;32.75;30.25;;;;;15.91;56.35;101074.63;2096453;28;45920;-66
2023/05/01 03:32:00;;;;;;;;;29.50;28.50;;;;;15.91;56.84;101077.28;2087823;28;46024;-65
2023/05/01 03:33:01;;;;;;;;;30.25;28.50;;;;;15.89;56.28;101077.34;2082219;28;46649;-65
2023/05/01 03:34:01;;;;;;;;;31.00;29.25;;;;;15.89;56.53;101077.34;2096436;28;45626;-65
2023/05/01 03:35:02;;;;;;;;;31.50;30.50;;;;;15.87;56.84;101077.38;2095629;28;46989;-65
2023/05/01 03:36:04;;;;;;;;;30.50;29.00;;;;;15.88;56.75;101084.50;2095734;28;46624;-66
2023/05/01 03:37:04;;;;;;;;;28.80;28.40;;;;;15.88;56.53;101079.16;2096477;28;46070;-65
2023/05/01 03:38:05;;;;;;;;;27.50;26.75;;;;;15.89;56.51;101082.72;2092847;28;46363;-66
2023/05/01 03:39:07;;;;;;;;;30.75;29.75;;;;;15.91;56.56;101077.28;2087527;28;45657;-66
2023/05/01 03:40:08;;;;;;;;;35.80;31.20;;;;;15.91;56.51;101083.53;2087742;28;46673;-66
2023/05/01 03:41:08;;;;;;;;;34.50;31.00;;;;;15.90;56.83;101079.09;2087949;28;46572;-66
2023/05/01 03:42:09;;;;;;;;;36.75;33.25;;;;;15.89;57.00;101080.03;2087521;28;47253;-65
2023/05/01 03:43:09;;;;;;;;;35.75;31.00;;;;;15.86;56.84;101070.28;2087835;28;46635;-66
2023/05/01 03:44:09;;;;;;;;;30.50;29.25;;;;;15.84;56.97;101074.84;2087897;28;46627;-66
2023/05/01 03:45:10;;;;;;;;;26.00;26.00;;;;;15.82;56.64;101071.34;2088266;28;45568;-65
2023/05/01 03:46:10;;;;;;;;;34.00;31.00;;;;;15.79;56.91;101078.63;2089297;28;46840;-65
2023/05/01 03:47:10;;;;;;;;;33.00;28.50;;;;;15.77;56.95;101084.03;2086627;28;45849;-67
2023/05/01 03:48:12;;;;;;;;;34.75;31.00;;;;;15.74;57.13;101083.25;2078335;28;46511;-66
2023/05/01 03:49:12;;;;;;;;;31.40;29.60;;;;;15.71;57.22;101078.91;2087607;28;46893;-66
2023/05/01 03:50:13;;;;;;;;;32.00;29.25;;;;;15.68;57.16;101081.69;2088664;28;45594;-66
2023/05/01 03:51:16;;;;;;;;;32.00;30.00;;;;;15.67;57.79;101084.44;2090323;28;46648;-67
2023/05/01 03:52:16;;;;;;;;;35.80;32.00;;;;;15.65;57.73;101075.59;2096237;28;45272;-66
2023/05/01 03:53:17;;;;;;;;;36.75;32.00;;;;;15.63;57.88;101085.47;2096315;28;46178;-67
2023/05/01 03:54:17;;;;;;;;;34.75;31.75;;;;;15.61;57.46;101082.84;2095112;28;46640;-66
2023/05/01 03:55:18;;;;;;;;;33.00;29.25;;;;;15.58;57.85;101082.91;2087925;28;46749;-66
2023/05/01 03:56:18;;;;;;;;;35.50;32.00;;;;;15.57;57.56;101082.03;2092123;28;46659;-66
2023/05/01 03:57:22;;;;;;;;;34.75;29.75;;;;;15.57;58.08;101081.19;2096238;28;46719;-67
2023/05/01 03:58:22;;;;;;;;;34.60;31.80;;;;;15.54;57.91;101084.84;2096078;28;46674;-66
2023/05/01 03:59:22;;;;;;;;;29.75;29.25;;;;;15.51;57.88;101084.09;2093228;28;46227;-67
2023/05/01 04:00:23;;;;;;;;;38.00;30.75;;;;;15.49;57.98;101086.78;2094720;28;45889;-66
2023/05/01 04:01:23;;;;;;;;;30.50;29.00;;;;;15.48;58.22;101089.53;2090593;28;46180;-66
2023/05/01 04:02:23;;;;;;;;;37.50;32.00;;;;;15.45;58.00;101089.66;2078174;28;46614;-66
2023/05/01 04:03:24;;;;;;;;;36.25;31.50;;;;;15.43;58.16;101083.47;2086746;28;46329;-66
2023/05/01 04:04:25;;;;;;;;;39.25;32.00;;;;;15.42;58.71;101092.44;2094666;28;46436;-66
2023/05/01 04:05:25;;;;;;;;;33.00;31.00;;;;;15.41;58.84;101096.03;2094927;28;46816;-67
2023/05/01 04:06:26;;;;;;;;;38.75;32.00;;;;;15.40;58.45;101083.59;2094892;28;46521;-65
2023/05/01 04:07:26;;;;;;;;;35.00;31.00;;;;;15.38;58.62;101086.34;2086775;28;46789;-66
2023/05/01 04:08:26;;;;;;;;;39.25;33.50;;;;;15.38;58.61;101086.34;2078835;28;46833;-66
2023/05/01 04:09:28;;;;;;;;;38.25;34.00;;;;;15.37;58.26;101092.56;2082907;28;46680;-67
2023/05/01 04:10:29;;;;;;;;;35.00;32.40;;;;;15.33;58.77;101090.94;2095376;28;46411;-66
2023/05/01 04:11:30;;;;;;;;;44.00;36.40;;;;;15.30;58.51;101086.59;2103813;28;46612;-65
2023/05/01 04:12:30;;;;;;;;;40.00;33.75;;;;;15.30;59.13;101088.41;2103123;28;46573;-67
2023/05/01 04:13:30;;;;;;;;;39.50;33.75;;;;;15.29;59.31;101086.66;2103602;28;46286;-66
2023/05/01 04:14:31;;;;;;;;;37.75;32.00;;;;;15.29;58.89;101089.31;2103350;28;47169;-66
2023/05/01 04:15:31;;;;;;;;;40.50;33.75;;;;;15.28;59.55;101085.78;2102011;28;46306;-66
2023/05/01 04:16:32;;;;;;;;;40.25;33.00;;;;;15.29;59.02;101086.66;2095355;28;46593;-66
2023/05/01 04:17:34;;;;;;;;;40.50;34.00;;;;;15.29;59.32;101083.97;2099829;28;46211;-67
2023/05/01 04:18:35;;;;;;;;;34.80;30.80;;;;;15.28;59.48;101082.22;2104256;28;45693;-66
2023/05/01 04:19:35;;;;;;;;;36.50;31.00;;;;;15.28;59.46;101082.22;2103246;28;46634;-65
2023/05/01 04:20:35;;;;;;;;;43.75;37.00;;;;;15.28;59.38;101090.25;2103211;28;47735;-67
2023/05/01 04:21:36;;;;;;;;;39.00;34.50;;;;;15.27;59.58;101092.06;2102503;28;45691;-66
2023/05/01 04:22:36;;;;;;;;;45.00;34.50;;;;;15.26;59.89;101084.09;2101463;28;46488;-65
2023/05/01 04:23:37;;;;;;;;;35.75;31.00;;;;;15.27;59.83;101081.34;2103749;28;46322;-66
2023/05/01 04:24:37;;;;;;;;;37.75;34.25;;;;;15.28;59.90;101092.94;2103951;28;47276;-64
2023/05/01 04:25:37;;;;;;;;;41.75;35.25;;;;;15.28;59.40;101084.91;2103201;28;46518;-65
2023/05/01 04:26:38;;;;;;;;;43.75;35.00;;;;;15.27;59.28;101094.72;2103598;28;46834;-65
2023/05/01 04:27:38;;;;;;;;;46.25;38.50;;;;;15.27;59.80;101093.84;2103462;28;45658;-66
2023/05/01 04:28:38;;;;;;;;;39.75;33.50;;;;;15.26;59.76;101087.63;2103787;28;45670;-65
2023/05/01 04:29:40;;;;;;;;;46.00;37.00;;;;;15.25;60.22;101095.72;2103442;28;46262;-66
2023/05/01 04:30:40;;;;;;;;;42.00;36.40;;;;;15.24;59.68;101089.47;2103877;28;45971;-66
2023/05/01 04:31:42;;;;;;;;;44.25;37.50;;;;;15.24;59.63;101091.25;2104494;28;46180;-65
2023/05/01 04:32:42;;;;;;;;;47.40;39.20;;;;;15.24;59.72;101089.47;2097160;28;46452;-65
2023/05/01 04:33:42;;;;;;;;;45.00;39.00;;;;;15.24;60.07;101099.28;2097445;28;46809;-65
2023/05/01 04:34:43;;;;;;;;;45.50;36.50;;;;;15.23;59.93;101095.75;2092327;28;45887;-65
2023/05/01 04:35:43;;;;;;;;;47.60;38.40;;;;;15.23;59.56;101101.09;2088928;28;46579;-65
2023/05/01 04:36:44;;;;;;;;;50.25;40.75;;;;;15.23;59.85;101100.22;2083270;28;46358;-65
2023/05/01 04:37:44;;;;;;;;;51.25;41.50;;;;;15.22;59.97;101093.13;2088339;28;46547;-67
2023/05/01 04:38:45;;;;;;;;;49.25;41.25;;;;;15.22;60.12;101102.00;2090816;28;46397;-66
2023/05/01 04:39:45;;;;;;;;;51.50;41.25;;;;;15.22;59.85;101106.50;2089141;28;46339;-66
2023/05/01 04:40:45;;;;;;;;;46.00;38.00;;;;;15.21;60.09;101102.94;2088626;28;46416;-65
2023/05/01 04:41:45;;;;;;;;;49.00;41.00;;;;;15.21;60.33;101097.59;2088874;28;46469;-65
2023/05/01 04:42:46;;;;;;;;;51.75;42.75;;;;;15.20;59.97;101103.00;2088415;28;47012;-64
2023/05/01 04:43:46;;;;;;;;;50.00;42.50;;;;;15.19;60.37;101114.63;2091927;28;46808;-65
2023/05/01 04:44:47;;;;;;;;;50.25;42.00;;;;;15.17;59.96;101114.69;2088995;28;46348;-66
2023/05/01 04:45:47;;;;;;;;;49.50;41.25;;;;;15.17;60.46;101108.47;2089279;28;45513;-65
2023/05/01 04:46:47;;;;;;;;;48.25;40.50;;;;;15.16;60.08;101114.75;2089184;28;45538;-65